sensor_id;sensor_type;location;lat;lon;timestamp;temperature;humidity
29849;DHT22;16728;50.832;5.590;2023-02-28T00:01:39;2.30;99.90
29849;DHT22;16728;50.832;5.590;2023-02-28T00:04:41;2.30;99.90
29849;DHT22;16728;50.832;5.590;2023-02-28T00:07:43;2.40;99.90
29849;DHT22;16728;50.832;5.590;2023-02-28T00:10:45;2.30;99.90
29849;DHT22;16728;50.832;5.590;2023-02-28T00:13:48;2.40;99.90
29849;DHT22;16728;50.832;5.590;2023-02-28T00:16:50;2.20;99.90
29849;DHT22;16728;50.832;5.590;2023-02-28T00:19:52;2.20;99.90
29849;DHT22;16728;50.832;5.590;2023-02-28T00:22:54;2.30;99.90
29849;DHT22;16728;50.832;5.590;2023-02-28T00:25:56;2.30;99.90
29849;DHT22;16728;50.832;5.590;2023-02-28T00:28:57;2.20;99.90
29849;DHT22;16728;50.832;5.590;2023-02-28T00:32:00;2.30;99.90
29849;DHT22;16728;50.832;5.590;2023-02-28T00:35:03;2.30;99.90
29849;DHT22;16728;50.832;5.590;2023-02-28T00:38:05;2.20;99.90
29849;DHT22;16728;50.832;5.590;2023-02-28T00:41:07;2.10;99.90
29849;DHT22;16728;50.832;5.590;2023-02-28T00:44:09;2.00;99.90
29849;DHT22;16728;50.832;5.590;2023-02-28T00:47:11;2.00;99.90
29849;DHT22;16728;50.832;5.590;2023-02-28T00:50:13;2.00;99.90
29849;DHT22;16728;50.832;5.590;2023-02-28T00:53:15;1.90;99.90
29849;DHT22;16728;50.832;5.590;2023-02-28T00:56:17;1.80;99.90
29849;DHT22;16728;50.832;5.590;2023-02-28T00:59:19;1.90;99.90
29849;DHT22;16728;50.832;5.590;2023-02-28T01:02:22;1.80;99.90
29849;DHT22;16728;50.832;5.590;2023-02-28T01:05:24;1.70;99.90
29849;DHT22;16728;50.832;5.590;2023-02-28T01:08:26;1.60;99.90
29849;DHT22;16728;50.832;5.590;2023-02-28T01:11:28;1.70;99.90
29849;DHT22;16728;50.832;5.590;2023-02-28T01:14:30;1.70;99.90
29849;DHT22;16728;50.832;5.590;2023-02-28T01:17:32;1.60;99.90
29849;DHT22;16728;50.832;5.590;2023-02-28T01:20:36;1.60;99.90
29849;DHT22;16728;50.832;5.590;2023-02-28T01:23:39;1.50;99.90
29849;DHT22;16728;50.832;5.590;2023-02-28T01:26:41;1.50;99.90
29849;DHT22;16728;50.832;5.590;2023-02-28T01:29:43;1.50;99.90
29849;DHT22;16728;50.832;5.590;2023-02-28T01:32:45;1.50;99.90
29849;DHT22;16728;50.832;5.590;2023-02-28T01:35:47;1.60;99.90
29849;DHT22;16728;50.832;5.590;2023-02-28T01:38:49;1.60;99.90
29849;DHT22;16728;50.832;5.590;2023-02-28T01:41:51;1.60;99.90
29849;DHT22;16728;50.832;5.590;2023-02-28T01:48:33;1.60;99.90
29849;DHT22;16728;50.832;5.590;2023-02-28T01:51:58;1.70;99.90
29849;DHT22;16728;50.832;5.590;2023-02-28T01:55:00;1.50;99.90
29849;DHT22;16728;50.832;5.590;2023-02-28T01:58:04;1.50;99.90
29849;DHT22;16728;50.832;5.590;2023-02-28T02:01:07;1.50;99.90
29849;DHT22;16728;50.832;5.590;2023-02-28T02:04:09;1.50;99.90
29849;DHT22;16728;50.832;5.590;2023-02-28T02:07:12;1.50;99.90
29849;DHT22;16728;50.832;5.590;2023-02-28T02:10:21;1.50;99.90
29849;DHT22;16728;50.832;5.590;2023-02-28T02:26:51;1.30;99.90
29849;DHT22;16728;50.832;5.590;2023-02-28T02:34:00;1.20;99.90
29849;DHT22;16728;50.832;5.590;2023-02-28T02:37:14;1.20;99.90
29849;DHT22;16728;50.832;5.590;2023-02-28T02:40:22;1.30;99.90
29849;DHT22;16728;50.832;5.590;2023-02-28T02:43:45;1.20;99.90
29849;DHT22;16728;50.832;5.590;2023-02-28T02:46:51;1.30;99.90
29849;DHT22;16728;50.832;5.590;2023-02-28T02:49:57;1.30;99.90
29849;DHT22;16728;50.832;5.590;2023-02-28T02:53:01;1.20;99.90
29849;DHT22;16728;50.832;5.590;2023-02-28T02:56:05;1.20;99.90
29849;DHT22;16728;50.832;5.590;2023-02-28T02:59:10;1.20;99.90
29849;DHT22;16728;50.832;5.590;2023-02-28T03:02:14;1.10;99.90
29849;DHT22;16728;50.832;5.590;2023-02-28T03:05:25;1.10;99.90
29849;DHT22;16728;50.832;5.590;2023-02-28T03:08:29;1.10;99.90
29849;DHT22;16728;50.832;5.590;2023-02-28T03:11:32;1.10;99.90
29849;DHT22;16728;50.832;5.590;2023-02-28T03:18:00;1.20;99.90
29849;DHT22;16728;50.832;5.590;2023-02-28T03:24:40;1.00;99.90
29849;DHT22;16728;50.832;5.590;2023-02-28T03:37:35;0.80;99.90
29849;DHT22;16728;50.832;5.590;2023-02-28T03:40:42;0.80;99.90
29849;DHT22;16728;50.832;5.590;2023-02-28T03:43:59;0.80;99.90
29849;DHT22;16728;50.832;5.590;2023-02-28T03:50:12;0.90;99.90
29849;DHT22;16728;50.832;5.590;2023-02-28T03:53:34;1.00;99.90
29849;DHT22;16728;50.832;5.590;2023-02-28T03:56:53;1.00;99.90
29849;DHT22;16728;50.832;5.590;2023-02-28T04:03:09;1.10;99.90
29849;DHT22;16728;50.832;5.590;2023-02-28T04:06:18;1.20;99.90
29849;DHT22;16728;50.832;5.590;2023-02-28T04:09:20;1.10;99.90
29849;DHT22;16728;50.832;5.590;2023-02-28T04:12:22;1.10;99.90
29849;DHT22;16728;50.832;5.590;2023-02-28T04:15:24;1.10;99.90
29849;DHT22;16728;50.832;5.590;2023-02-28T04:18:28;1.20;99.90
29849;DHT22;16728;50.832;5.590;2023-02-28T04:21:33;1.20;99.90
29849;DHT22;16728;50.832;5.590;2023-02-28T04:24:35;1.20;99.90
29849;DHT22;16728;50.832;5.590;2023-02-28T04:27:37;1.20;99.90
29849;DHT22;16728;50.832;5.590;2023-02-28T04:30:38;1.20;99.90
29849;DHT22;16728;50.832;5.590;2023-02-28T04:33:40;1.20;99.90
29849;DHT22;16728;50.832;5.590;2023-02-28T04:36:42;1.30;99.90
29849;DHT22;16728;50.832;5.590;2023-02-28T04:39:44;1.20;99.90
29849;DHT22;16728;50.832;5.590;2023-02-28T04:42:46;1.20;99.90
29849;DHT22;16728;50.832;5.590;2023-02-28T04:45:48;1.20;99.90
29849;DHT22;16728;50.832;5.590;2023-02-28T04:48:50;1.20;99.90
29849;DHT22;16728;50.832;5.590;2023-02-28T04:51:52;1.10;99.90
29849;DHT22;16728;50.832;5.590;2023-02-28T04:54:54;1.10;99.90
29849;DHT22;16728;50.832;5.590;2023-02-28T04:57:56;1.10;99.90
29849;DHT22;16728;50.832;5.590;2023-02-28T05:01:07;1.00;99.90
29849;DHT22;16728;50.832;5.590;2023-02-28T05:04:17;1.10;99.90
29849;DHT22;16728;50.832;5.590;2023-02-28T05:07:19;1.00;99.90
29849;DHT22;16728;50.832;5.590;2023-02-28T05:10:21;1.00;99.90
29849;DHT22;16728;50.832;5.590;2023-02-28T05:13:23;0.90;99.90
29849;DHT22;16728;50.832;5.590;2023-02-28T05:16:25;0.90;99.90
29849;DHT22;16728;50.832;5.590;2023-02-28T05:19:27;1.00;99.90
29849;DHT22;16728;50.832;5.590;2023-02-28T05:22:29;0.90;99.90
29849;DHT22;16728;50.832;5.590;2023-02-28T05:25:32;0.90;99.90
29849;DHT22;16728;50.832;5.590;2023-02-28T05:28:34;0.90;99.90
29849;DHT22;16728;50.832;5.590;2023-02-28T05:31:37;0.90;99.90
29849;DHT22;16728;50.832;5.590;2023-02-28T05:34:40;0.70;99.90
29849;DHT22;16728;50.832;5.590;2023-02-28T05:37:42;0.70;99.90
29849;DHT22;16728;50.832;5.590;2023-02-28T05:40:44;0.70;99.90
29849;DHT22;16728;50.832;5.590;2023-02-28T05:43:46;0.60;99.90
29849;DHT22;16728;50.832;5.590;2023-02-28T05:46:48;0.60;99.90
29849;DHT22;16728;50.832;5.590;2023-02-28T05:49:50;0.50;99.90
29849;DHT22;16728;50.832;5.590;2023-02-28T05:52:52;0.60;99.90
29849;DHT22;16728;50.832;5.590;2023-02-28T05:55:54;0.50;99.90
29849;DHT22;16728;50.832;5.590;2023-02-28T05:58:56;0.60;99.90
29849;DHT22;16728;50.832;5.590;2023-02-28T06:01:58;0.60;99.90
29849;DHT22;16728;50.832;5.590;2023-02-28T06:05:00;0.50;99.90
29849;DHT22;16728;50.832;5.590;2023-02-28T06:08:02;0.60;99.90
29849;DHT22;16728;50.832;5.590;2023-02-28T06:11:04;0.60;99.90
29849;DHT22;16728;50.832;5.590;2023-02-28T06:14:07;0.50;99.90
29849;DHT22;16728;50.832;5.590;2023-02-28T06:17:10;0.50;99.90
29849;DHT22;16728;50.832;5.590;2023-02-28T06:20:12;0.50;99.90
29849;DHT22;16728;50.832;5.590;2023-02-28T06:23:16;0.40;99.90
29849;DHT22;16728;50.832;5.590;2023-02-28T06:26:18;0.30;99.90
29849;DHT22;16728;50.832;5.590;2023-02-28T06:29:20;0.50;99.90
29849;DHT22;16728;50.832;5.590;2023-02-28T06:32:22;0.60;99.90
29849;DHT22;16728;50.832;5.590;2023-02-28T06:35:24;0.40;99.90
29849;DHT22;16728;50.832;5.590;2023-02-28T06:38:26;0.40;99.90
29849;DHT22;16728;50.832;5.590;2023-02-28T06:41:28;0.30;99.90
29849;DHT22;16728;50.832;5.590;2023-02-28T06:44:35;0.50;99.90
29849;DHT22;16728;50.832;5.590;2023-02-28T06:47:40;0.40;99.90
29849;DHT22;16728;50.832;5.590;2023-02-28T06:50:42;0.50;99.90
29849;DHT22;16728;50.832;5.590;2023-02-28T06:53:44;0.60;99.90
29849;DHT22;16728;50.832;5.590;2023-02-28T06:56:46;0.50;99.90
29849;DHT22;16728;50.832;5.590;2023-02-28T06:59:49;0.50;99.90
29849;DHT22;16728;50.832;5.590;2023-02-28T07:02:51;0.50;99.90
29849;DHT22;16728;50.832;5.590;2023-02-28T07:05:55;0.50;99.90
29849;DHT22;16728;50.832;5.590;2023-02-28T07:08:58;0.50;99.90
29849;DHT22;16728;50.832;5.590;2023-02-28T07:12:00;0.50;99.90
29849;DHT22;16728;50.832;5.590;2023-02-28T07:15:04;0.70;99.90
29849;DHT22;16728;50.832;5.590;2023-02-28T07:18:06;0.60;99.90
29849;DHT22;16728;50.832;5.590;2023-02-28T07:21:09;0.60;99.90
29849;DHT22;16728;50.832;5.590;2023-02-28T07:24:11;0.60;99.90
29849;DHT22;16728;50.832;5.590;2023-02-28T07:27:14;0.70;99.90
29849;DHT22;16728;50.832;5.590;2023-02-28T07:30:25;0.70;99.90
29849;DHT22;16728;50.832;5.590;2023-02-28T07:33:27;0.80;99.90
29849;DHT22;16728;50.832;5.590;2023-02-28T07:36:28;0.80;99.90
29849;DHT22;16728;50.832;5.590;2023-02-28T07:39:30;0.90;99.90
29849;DHT22;16728;50.832;5.590;2023-02-28T07:42:32;0.90;99.90
29849;DHT22;16728;50.832;5.590;2023-02-28T07:45:34;0.80;99.90
29849;DHT22;16728;50.832;5.590;2023-02-28T07:48:36;0.90;99.90
29849;DHT22;16728;50.832;5.590;2023-02-28T07:51:38;1.00;99.90
29849;DHT22;16728;50.832;5.590;2023-02-28T07:54:40;1.10;99.90
29849;DHT22;16728;50.832;5.590;2023-02-28T07:57:42;1.20;99.90
29849;DHT22;16728;50.832;5.590;2023-02-28T08:00:44;1.20;99.90
29849;DHT22;16728;50.832;5.590;2023-02-28T08:03:46;1.40;99.90
29849;DHT22;16728;50.832;5.590;2023-02-28T08:06:48;1.30;99.90
29849;DHT22;16728;50.832;5.590;2023-02-28T08:09:53;1.40;99.90
29849;DHT22;16728;50.832;5.590;2023-02-28T08:12:55;1.50;99.90
29849;DHT22;16728;50.832;5.590;2023-02-28T08:15:57;1.50;99.90
29849;DHT22;16728;50.832;5.590;2023-02-28T08:18:59;1.60;99.90
29849;DHT22;16728;50.832;5.590;2023-02-28T08:22:01;1.70;99.90
29849;DHT22;16728;50.832;5.590;2023-02-28T08:25:03;1.80;99.90
29849;DHT22;16728;50.832;5.590;2023-02-28T08:28:05;1.90;99.90
29849;DHT22;16728;50.832;5.590;2023-02-28T08:31:09;1.90;99.90
29849;DHT22;16728;50.832;5.590;2023-02-28T08:34:13;2.10;99.90
29849;DHT22;16728;50.832;5.590;2023-02-28T08:37:15;2.20;99.90
29849;DHT22;16728;50.832;5.590;2023-02-28T08:40:17;2.20;99.90
29849;DHT22;16728;50.832;5.590;2023-02-28T08:43:20;2.20;99.90
29849;DHT22;16728;50.832;5.590;2023-02-28T08:46:22;2.30;99.90
29849;DHT22;16728;50.832;5.590;2023-02-28T08:49:25;2.30;99.90
29849;DHT22;16728;50.832;5.590;2023-02-28T08:52:27;2.50;99.90
29849;DHT22;16728;50.832;5.590;2023-02-28T08:55:29;2.60;99.90
29849;DHT22;16728;50.832;5.590;2023-02-28T08:58:31;2.60;99.90
29849;DHT22;16728;50.832;5.590;2023-02-28T09:01:33;2.70;99.90
29849;DHT22;16728;50.832;5.590;2023-02-28T09:04:36;2.80;99.90
29849;DHT22;16728;50.832;5.590;2023-02-28T09:07:37;3.00;99.90
29849;DHT22;16728;50.832;5.590;2023-02-28T09:10:39;3.00;99.90
29849;DHT22;16728;50.832;5.590;2023-02-28T09:13:42;3.10;99.90
29849;DHT22;16728;50.832;5.590;2023-02-28T09:16:44;3.10;99.90
29849;DHT22;16728;50.832;5.590;2023-02-28T09:19:48;3.20;99.90
29849;DHT22;16728;50.832;5.590;2023-02-28T09:22:50;3.40;99.90
29849;DHT22;16728;50.832;5.590;2023-02-28T09:25:54;3.40;99.90
29849;DHT22;16728;50.832;5.590;2023-02-28T09:28:56;3.40;99.90
29849;DHT22;16728;50.832;5.590;2023-02-28T09:32:01;3.60;99.90
29849;DHT22;16728;50.832;5.590;2023-02-28T09:35:03;3.60;99.90
29849;DHT22;16728;50.832;5.590;2023-02-28T09:38:06;3.70;99.90
29849;DHT22;16728;50.832;5.590;2023-02-28T09:41:18;3.70;99.90
29849;DHT22;16728;50.832;5.590;2023-02-28T09:44:47;3.80;99.90
29849;DHT22;16728;50.832;5.590;2023-02-28T09:47:51;4.00;99.90
29849;DHT22;16728;50.832;5.590;2023-02-28T09:51:00;4.10;99.90
29849;DHT22;16728;50.832;5.590;2023-02-28T09:54:03;4.00;99.90
29849;DHT22;16728;50.832;5.590;2023-02-28T09:57:11;4.10;99.90
29849;DHT22;16728;50.832;5.590;2023-02-28T10:00:18;4.20;99.90
29849;DHT22;16728;50.832;5.590;2023-02-28T10:03:38;4.20;99.90
29849;DHT22;16728;50.832;5.590;2023-02-28T10:06:46;4.30;99.90
29849;DHT22;16728;50.832;5.590;2023-02-28T10:09:53;4.40;99.90
29849;DHT22;16728;50.832;5.590;2023-02-28T10:13:00;4.30;99.90
29849;DHT22;16728;50.832;5.590;2023-02-28T10:16:15;4.40;99.90
29849;DHT22;16728;50.832;5.590;2023-02-28T10:22:36;4.60;99.90
29849;DHT22;16728;50.832;5.590;2023-02-28T10:25:40;4.60;99.70
29849;DHT22;16728;50.832;5.590;2023-02-28T10:28:44;4.60;99.20
29849;DHT22;16728;50.832;5.590;2023-02-28T10:31:46;4.60;99.10
29849;DHT22;16728;50.832;5.590;2023-02-28T10:35:14;4.80;98.80
29849;DHT22;16728;50.832;5.590;2023-02-28T10:38:21;4.90;98.60
29849;DHT22;16728;50.832;5.590;2023-02-28T10:41:31;5.00;98.20
29849;DHT22;16728;50.832;5.590;2023-02-28T10:44:37;5.10;98.30
29849;DHT22;16728;50.832;5.590;2023-02-28T10:47:53;5.10;97.60
29849;DHT22;16728;50.832;5.590;2023-02-28T10:50:57;5.00;97.10
29849;DHT22;16728;50.832;5.590;2023-02-28T10:54:00;5.00;96.30
29849;DHT22;16728;50.832;5.590;2023-02-28T10:57:19;4.80;95.50
29849;DHT22;16728;50.832;5.590;2023-02-28T11:00:23;4.70;95.50
29849;DHT22;16728;50.832;5.590;2023-02-28T11:03:35;4.60;94.70
29849;DHT22;16728;50.832;5.590;2023-02-28T11:06:36;4.50;94.90
29849;DHT22;16728;50.832;5.590;2023-02-28T11:09:40;4.50;94.70
29849;DHT22;16728;50.832;5.590;2023-02-28T11:12:42;4.60;94.50
29849;DHT22;16728;50.832;5.590;2023-02-28T11:15:56;4.60;94.40
29849;DHT22;16728;50.832;5.590;2023-02-28T11:18:58;4.50;93.90
29849;DHT22;16728;50.832;5.590;2023-02-28T11:22:02;4.50;93.40
29849;DHT22;16728;50.832;5.590;2023-02-28T11:28:33;4.50;93.10
29849;DHT22;16728;50.832;5.590;2023-02-28T11:31:35;4.50;93.20
29849;DHT22;16728;50.832;5.590;2023-02-28T11:34:39;4.50;92.90
29849;DHT22;16728;50.832;5.590;2023-02-28T11:37:41;4.50;93.00
29849;DHT22;16728;50.832;5.590;2023-02-28T11:40:53;4.60;93.30
29849;DHT22;16728;50.832;5.590;2023-02-28T12:00:48;5.10;91.80
29849;DHT22;16728;50.832;5.590;2023-02-28T12:07:30;5.10;91.60
29849;DHT22;16728;50.832;5.590;2023-02-28T12:21:04;5.20;91.10
29849;DHT22;16728;50.832;5.590;2023-02-28T12:27:58;5.40;91.40
29849;DHT22;16728;50.832;5.590;2023-02-28T12:31:06;5.40;90.90
29849;DHT22;16728;50.832;5.590;2023-02-28T12:34:13;5.40;91.20
29849;DHT22;16728;50.832;5.590;2023-02-28T12:37:25;5.70;92.20
29849;DHT22;16728;50.832;5.590;2023-02-28T12:43:46;5.90;91.10
29849;DHT22;16728;50.832;5.590;2023-02-28T12:46:51;5.90;91.20
29849;DHT22;16728;50.832;5.590;2023-02-28T12:50:12;6.00;91.20
29849;DHT22;16728;50.832;5.590;2023-02-28T13:00:03;6.00;91.10
29849;DHT22;16728;50.832;5.590;2023-02-28T13:03:27;6.00;90.70
29849;DHT22;16728;50.832;5.590;2023-02-28T13:10:04;5.80;90.10
29849;DHT22;16728;50.832;5.590;2023-02-28T13:13:17;5.70;90.50
29849;DHT22;16728;50.832;5.590;2023-02-28T13:16:20;5.90;90.90
29849;DHT22;16728;50.832;5.590;2023-02-28T13:19:27;5.90;90.70
29849;DHT22;16728;50.832;5.590;2023-02-28T13:22:45;6.00;91.00
29849;DHT22;16728;50.832;5.590;2023-02-28T13:25:52;6.00;91.40
29849;DHT22;16728;50.832;5.590;2023-02-28T13:29:01;6.10;91.20
29849;DHT22;16728;50.832;5.590;2023-02-28T13:38:17;5.80;90.90
29849;DHT22;16728;50.832;5.590;2023-02-28T13:48:26;5.80;92.00
29849;DHT22;16728;50.832;5.590;2023-02-28T13:54:55;5.80;91.20
29849;DHT22;16728;50.832;5.590;2023-02-28T14:01:53;5.80;91.60
29849;DHT22;16728;50.832;5.590;2023-02-28T14:05:13;5.80;91.80
29849;DHT22;16728;50.832;5.590;2023-02-28T14:08:22;5.80;91.80
29849;DHT22;16728;50.832;5.590;2023-02-28T14:17:40;5.80;92.60
29849;DHT22;16728;50.832;5.590;2023-02-28T14:20:43;5.70;92.70
29849;DHT22;16728;50.832;5.590;2023-02-28T14:27:35;5.70;92.10
29849;DHT22;16728;50.832;5.590;2023-02-28T14:37:38;5.80;92.30
29849;DHT22;16728;50.832;5.590;2023-02-28T14:40:41;5.70;91.40
29849;DHT22;16728;50.832;5.590;2023-02-28T14:43:57;5.70;92.30
29849;DHT22;16728;50.832;5.590;2023-02-28T14:47:01;5.80;92.20
29849;DHT22;16728;50.832;5.590;2023-02-28T14:50:29;5.80;92.00
29849;DHT22;16728;50.832;5.590;2023-02-28T14:53:36;5.70;91.80
29849;DHT22;16728;50.832;5.590;2023-02-28T14:56:39;5.60;91.70
29849;DHT22;16728;50.832;5.590;2023-02-28T14:59:41;5.60;91.80
29849;DHT22;16728;50.832;5.590;2023-02-28T15:02:44;5.60;91.90
29849;DHT22;16728;50.832;5.590;2023-02-28T15:05:57;5.60;92.70
29849;DHT22;16728;50.832;5.590;2023-02-28T15:09:18;5.70;92.70
29849;DHT22;16728;50.832;5.590;2023-02-28T15:12:21;5.70;93.20
29849;DHT22;16728;50.832;5.590;2023-02-28T15:19:07;5.70;92.00
29849;DHT22;16728;50.832;5.590;2023-02-28T15:22:24;5.70;91.90
29849;DHT22;16728;50.832;5.590;2023-02-28T15:25:30;5.60;92.70
29849;DHT22;16728;50.832;5.590;2023-02-28T15:28:33;5.60;92.60
29849;DHT22;16728;50.832;5.590;2023-02-28T15:31:41;5.60;92.50
29849;DHT22;16728;50.832;5.590;2023-02-28T15:34:59;5.60;92.70
29849;DHT22;16728;50.832;5.590;2023-02-28T15:38:25;5.70;93.20
29849;DHT22;16728;50.832;5.590;2023-02-28T15:41:30;5.70;93.20
29849;DHT22;16728;50.832;5.590;2023-02-28T15:44:34;5.60;92.70
29849;DHT22;16728;50.832;5.590;2023-02-28T15:47:38;5.50;93.00
29849;DHT22;16728;50.832;5.590;2023-02-28T15:50:40;5.60;93.30
29849;DHT22;16728;50.832;5.590;2023-02-28T15:54:01;5.60;92.90
29849;DHT22;16728;50.832;5.590;2023-02-28T15:57:10;5.60;93.00
29849;DHT22;16728;50.832;5.590;2023-02-28T16:00:18;5.60;92.90
29849;DHT22;16728;50.832;5.590;2023-02-28T16:03:35;5.60;93.10
29849;DHT22;16728;50.832;5.590;2023-02-28T16:06:43;5.60;92.90
29849;DHT22;16728;50.832;5.590;2023-02-28T16:09:46;5.60;93.00
29849;DHT22;16728;50.832;5.590;2023-02-28T16:12:48;5.50;93.20
29849;DHT22;16728;50.832;5.590;2023-02-28T16:15:50;5.60;92.90
29849;DHT22;16728;50.832;5.590;2023-02-28T16:18:53;5.50;92.70
29849;DHT22;16728;50.832;5.590;2023-02-28T16:21:55;5.60;93.10
29849;DHT22;16728;50.832;5.590;2023-02-28T16:24:57;5.60;93.40
29849;DHT22;16728;50.832;5.590;2023-02-28T16:27:59;5.50;93.80
29849;DHT22;16728;50.832;5.590;2023-02-28T16:31:05;5.50;93.90
29849;DHT22;16728;50.832;5.590;2023-02-28T16:34:07;5.40;94.10
29849;DHT22;16728;50.832;5.590;2023-02-28T16:37:13;5.40;94.20
29849;DHT22;16728;50.832;5.590;2023-02-28T16:40:19;5.40;94.40
29849;DHT22;16728;50.832;5.590;2023-02-28T16:43:26;5.40;94.50
29849;DHT22;16728;50.832;5.590;2023-02-28T16:46:33;5.40;94.40
29849;DHT22;16728;50.832;5.590;2023-02-28T16:49:36;5.30;94.50
29849;DHT22;16728;50.832;5.590;2023-02-28T16:52:37;5.30;94.70
29849;DHT22;16728;50.832;5.590;2023-02-28T16:55:39;5.20;94.70
29849;DHT22;16728;50.832;5.590;2023-02-28T16:58:41;5.20;94.70
29849;DHT22;16728;50.832;5.590;2023-02-28T17:01:43;5.20;94.90
29849;DHT22;16728;50.832;5.590;2023-02-28T17:04:46;5.10;95.00
29849;DHT22;16728;50.832;5.590;2023-02-28T17:07:49;5.10;95.30
29849;DHT22;16728;50.832;5.590;2023-02-28T17:10:51;5.10;95.30
29849;DHT22;16728;50.832;5.590;2023-02-28T17:13:53;5.10;95.40
29849;DHT22;16728;50.832;5.590;2023-02-28T17:16:58;5.10;95.50
29849;DHT22;16728;50.832;5.590;2023-02-28T17:20:03;5.10;95.70
29849;DHT22;16728;50.832;5.590;2023-02-28T17:23:06;5.00;96.00
29849;DHT22;16728;50.832;5.590;2023-02-28T17:26:16;5.00;96.00
29849;DHT22;16728;50.832;5.590;2023-02-28T17:29:21;4.90;96.20
29849;DHT22;16728;50.832;5.590;2023-02-28T17:32:23;4.80;96.30
29849;DHT22;16728;50.832;5.590;2023-02-28T17:35:25;4.80;96.50
29849;DHT22;16728;50.832;5.590;2023-02-28T17:38:28;4.80;96.50
29849;DHT22;16728;50.832;5.590;2023-02-28T17:41:30;4.70;96.60
29849;DHT22;16728;50.832;5.590;2023-02-28T17:44:33;4.70;96.80
29849;DHT22;16728;50.832;5.590;2023-02-28T17:47:35;4.50;97.00
29849;DHT22;16728;50.832;5.590;2023-02-28T17:50:37;4.50;97.30
29849;DHT22;16728;50.832;5.590;2023-02-28T17:53:39;4.50;97.40
29849;DHT22;16728;50.832;5.590;2023-02-28T17:56:42;4.40;97.70
29849;DHT22;16728;50.832;5.590;2023-02-28T17:59:47;4.40;97.80
29849;DHT22;16728;50.832;5.590;2023-02-28T18:02:49;4.40;97.90
29849;DHT22;16728;50.832;5.590;2023-02-28T18:05:52;4.20;98.20
29849;DHT22;16728;50.832;5.590;2023-02-28T18:08:55;4.10;98.40
29849;DHT22;16728;50.832;5.590;2023-02-28T18:11:56;4.20;98.60
29849;DHT22;16728;50.832;5.590;2023-02-28T18:14:59;4.20;98.80
29849;DHT22;16728;50.832;5.590;2023-02-28T18:18:01;4.10;98.70
29849;DHT22;16728;50.832;5.590;2023-02-28T18:21:11;4.10;98.90
29849;DHT22;16728;50.832;5.590;2023-02-28T18:24:18;4.10;99.10
29849;DHT22;16728;50.832;5.590;2023-02-28T18:27:20;4.00;99.30
29849;DHT22;16728;50.832;5.590;2023-02-28T18:30:23;4.00;99.40
29849;DHT22;16728;50.832;5.590;2023-02-28T18:33:25;3.90;99.40
29849;DHT22;16728;50.832;5.590;2023-02-28T18:36:28;3.90;99.70
29849;DHT22;16728;50.832;5.590;2023-02-28T18:39:30;3.80;99.90
29849;DHT22;16728;50.832;5.590;2023-02-28T18:42:33;3.80;99.90
29849;DHT22;16728;50.832;5.590;2023-02-28T18:45:36;3.80;99.90
29849;DHT22;16728;50.832;5.590;2023-02-28T18:48:39;3.70;99.90
29849;DHT22;16728;50.832;5.590;2023-02-28T18:51:41;3.70;99.90
29849;DHT22;16728;50.832;5.590;2023-02-28T18:54:47;3.70;99.90
29849;DHT22;16728;50.832;5.590;2023-02-28T18:57:49;3.60;99.90
29849;DHT22;16728;50.832;5.590;2023-02-28T19:00:52;3.60;99.90
29849;DHT22;16728;50.832;5.590;2023-02-28T19:03:56;3.60;99.90
29849;DHT22;16728;50.832;5.590;2023-02-28T19:06:59;3.60;99.90
29849;DHT22;16728;50.832;5.590;2023-02-28T19:10:04;3.70;99.90
29849;DHT22;16728;50.832;5.590;2023-02-28T19:13:06;3.70;99.90
29849;DHT22;16728;50.832;5.590;2023-02-28T19:16:09;3.70;99.90
29849;DHT22;16728;50.832;5.590;2023-02-28T19:19:15;3.70;99.90
29849;DHT22;16728;50.832;5.590;2023-02-28T19:22:16;3.70;99.90
29849;DHT22;16728;50.832;5.590;2023-02-28T19:25:18;3.60;99.90
29849;DHT22;16728;50.832;5.590;2023-02-28T19:28:20;3.60;99.90
29849;DHT22;16728;50.832;5.590;2023-02-28T19:31:24;3.60;99.90
29849;DHT22;16728;50.832;5.590;2023-02-28T19:34:26;3.70;99.90
29849;DHT22;16728;50.832;5.590;2023-02-28T19:37:28;3.60;99.90
29849;DHT22;16728;50.832;5.590;2023-02-28T19:40:30;3.60;99.90
29849;DHT22;16728;50.832;5.590;2023-02-28T19:43:33;3.50;99.90
29849;DHT22;16728;50.832;5.590;2023-02-28T19:46:34;3.40;99.90
29849;DHT22;16728;50.832;5.590;2023-02-28T19:49:36;3.50;99.90
29849;DHT22;16728;50.832;5.590;2023-02-28T19:52:38;3.40;99.90
29849;DHT22;16728;50.832;5.590;2023-02-28T19:55:40;3.40;99.90
29849;DHT22;16728;50.832;5.590;2023-02-28T19:58:42;3.30;99.90
29849;DHT22;16728;50.832;5.590;2023-02-28T20:01:44;3.40;99.90
29849;DHT22;16728;50.832;5.590;2023-02-28T20:04:49;3.40;99.90
29849;DHT22;16728;50.832;5.590;2023-02-28T20:07:51;3.40;99.90
29849;DHT22;16728;50.832;5.590;2023-02-28T20:10:53;3.40;99.90
29849;DHT22;16728;50.832;5.590;2023-02-28T20:13:55;3.40;99.90
29849;DHT22;16728;50.832;5.590;2023-02-28T20:17:02;3.20;99.90
29849;DHT22;16728;50.832;5.590;2023-02-28T20:20:05;3.30;99.90
29849;DHT22;16728;50.832;5.590;2023-02-28T20:23:09;3.20;99.90
29849;DHT22;16728;50.832;5.590;2023-02-28T20:26:11;3.20;99.90
29849;DHT22;16728;50.832;5.590;2023-02-28T20:29:13;3.30;99.90
29849;DHT22;16728;50.832;5.590;2023-02-28T20:32:15;3.10;99.90
29849;DHT22;16728;50.832;5.590;2023-02-28T20:35:17;3.10;99.90
29849;DHT22;16728;50.832;5.590;2023-02-28T20:38:19;3.10;99.90
29849;DHT22;16728;50.832;5.590;2023-02-28T20:41:21;3.10;99.90
29849;DHT22;16728;50.832;5.590;2023-02-28T20:44:23;3.20;99.90
29849;DHT22;16728;50.832;5.590;2023-02-28T20:47:25;3.30;99.90
29849;DHT22;16728;50.832;5.590;2023-02-28T20:50:27;3.30;99.90
29849;DHT22;16728;50.832;5.590;2023-02-28T20:53:30;3.30;99.90
29849;DHT22;16728;50.832;5.590;2023-02-28T20:56:32;3.30;99.90
29849;DHT22;16728;50.832;5.590;2023-02-28T20:59:34;3.30;99.90
29849;DHT22;16728;50.832;5.590;2023-02-28T21:02:36;3.20;99.90
29849;DHT22;16728;50.832;5.590;2023-02-28T21:05:39;3.10;99.90
29849;DHT22;16728;50.832;5.590;2023-02-28T21:08:41;3.20;99.90
29849;DHT22;16728;50.832;5.590;2023-02-28T21:11:43;3.10;99.90
29849;DHT22;16728;50.832;5.590;2023-02-28T21:14:47;3.10;99.90
29849;DHT22;16728;50.832;5.590;2023-02-28T21:17:50;3.00;99.90
29849;DHT22;16728;50.832;5.590;2023-02-28T21:21:03;3.10;99.90
29849;DHT22;16728;50.832;5.590;2023-02-28T21:24:05;3.00;99.90
29849;DHT22;16728;50.832;5.590;2023-02-28T21:27:09;3.00;99.90
29849;DHT22;16728;50.832;5.590;2023-02-28T21:30:14;2.90;99.90
29849;DHT22;16728;50.832;5.590;2023-02-28T21:33:16;2.90;99.90
29849;DHT22;16728;50.832;5.590;2023-02-28T21:36:21;3.00;99.90
29849;DHT22;16728;50.832;5.590;2023-02-28T21:39:25;3.10;99.90
29849;DHT22;16728;50.832;5.590;2023-02-28T21:42:27;3.00;99.90
29849;DHT22;16728;50.832;5.590;2023-02-28T21:45:29;3.10;99.90
29849;DHT22;16728;50.832;5.590;2023-02-28T21:48:32;3.00;99.90
29849;DHT22;16728;50.832;5.590;2023-02-28T21:51:34;2.90;99.90
29849;DHT22;16728;50.832;5.590;2023-02-28T21:54:36;2.70;99.90
29849;DHT22;16728;50.832;5.590;2023-02-28T21:57:38;2.60;99.90
29849;DHT22;16728;50.832;5.590;2023-02-28T22:00:41;2.70;99.90
29849;DHT22;16728;50.832;5.590;2023-02-28T22:03:43;2.50;99.90